sensor_id;sensor_type;location;lat;lon;timestamp;temperature;humidity
14614;DHT22;7393;51.446;6.800;2023-08-17T00:00:44;19.70;1.00
14614;DHT22;7393;51.446;6.800;2023-08-17T00:03:11;19.60;1.00
14614;DHT22;7393;51.446;6.800;2023-08-17T00:05:39;19.60;1.00
14614;DHT22;7393;51.446;6.800;2023-08-17T00:08:06;19.60;1.00
14614;DHT22;7393;51.446;6.800;2023-08-17T00:10:33;19.50;1.00
14614;DHT22;7393;51.446;6.800;2023-08-17T00:13:00;19.50;1.00
14614;DHT22;7393;51.446;6.800;2023-08-17T00:15:30;19.50;1.00
14614;DHT22;7393;51.446;6.800;2023-08-17T00:17:57;19.40;1.00
14614;DHT22;7393;51.446;6.800;2023-08-17T00:20:24;19.40;1.00
14614;DHT22;7393;51.446;6.800;2023-08-17T00:22:51;19.30;1.00
14614;DHT22;7393;51.446;6.800;2023-08-17T00:25:18;19.20;1.00
14614;DHT22;7393;51.446;6.800;2023-08-17T00:27:45;19.30;1.00
14614;DHT22;7393;51.446;6.800;2023-08-17T00:30:13;19.30;1.00
14614;DHT22;7393;51.446;6.800;2023-08-17T00:32:41;19.30;1.00
14614;DHT22;7393;51.446;6.800;2023-08-17T00:35:08;19.30;1.00
14614;DHT22;7393;51.446;6.800;2023-08-17T00:37:35;19.30;1.00
14614;DHT22;7393;51.446;6.800;2023-08-17T00:40:01;19.30;1.00
14614;DHT22;7393;51.446;6.800;2023-08-17T00:42:29;19.30;1.00
14614;DHT22;7393;51.446;6.800;2023-08-17T00:44:56;19.30;1.00
14614;DHT22;7393;51.446;6.800;2023-08-17T00:47:24;19.30;1.00
14614;DHT22;7393;51.446;6.800;2023-08-17T00:49:53;19.30;1.00
14614;DHT22;7393;51.446;6.800;2023-08-17T00:52:20;19.20;1.00
14614;DHT22;7393;51.446;6.800;2023-08-17T00:54:47;19.20;1.00
14614;DHT22;7393;51.446;6.800;2023-08-17T00:57:14;19.20;1.00
14614;DHT22;7393;51.446;6.800;2023-08-17T00:59:41;19.20;1.00
14614;DHT22;7393;51.446;6.800;2023-08-17T01:02:08;19.20;1.00
14614;DHT22;7393;51.446;6.800;2023-08-17T01:04:35;19.20;1.00
14614;DHT22;7393;51.446;6.800;2023-08-17T01:07:03;19.20;1.00
14614;DHT22;7393;51.446;6.800;2023-08-17T01:09:30;19.20;1.00
14614;DHT22;7393;51.446;6.800;2023-08-17T01:12:03;19.20;1.00
14614;DHT22;7393;51.446;6.800;2023-08-17T01:14:37;19.20;1.00
14614;DHT22;7393;51.446;6.800;2023-08-17T01:17:10;19.20;1.00
14614;DHT22;7393;51.446;6.800;2023-08-17T01:19:38;19.20;1.00
14614;DHT22;7393;51.446;6.800;2023-08-17T01:22:08;19.10;1.00
14614;DHT22;7393;51.446;6.800;2023-08-17T01:24:38;19.10;1.00
14614;DHT22;7393;51.446;6.800;2023-08-17T01:27:05;19.10;1.00
14614;DHT22;7393;51.446;6.800;2023-08-17T01:29:33;19.10;1.00
14614;DHT22;7393;51.446;6.800;2023-08-17T01:32:07;19.00;1.00
14614;DHT22;7393;51.446;6.800;2023-08-17T01:34:40;19.00;1.00
14614;DHT22;7393;51.446;6.800;2023-08-17T01:37:08;19.00;1.00
14614;DHT22;7393;51.446;6.800;2023-08-17T01:39:39;18.90;1.00
14614;DHT22;7393;51.446;6.800;2023-08-17T01:42:11;18.90;1.00
14614;DHT22;7393;51.446;6.800;2023-08-17T01:44:38;18.90;1.00
14614;DHT22;7393;51.446;6.800;2023-08-17T01:47:05;18.90;1.00
14614;DHT22;7393;51.446;6.800;2023-08-17T01:49:32;18.90;1.00
14614;DHT22;7393;51.446;6.800;2023-08-17T01:51:59;18.80;1.00
14614;DHT22;7393;51.446;6.800;2023-08-17T01:54:26;18.80;1.00
14614;DHT22;7393;51.446;6.800;2023-08-17T01:56:54;18.80;1.00
14614;DHT22;7393;51.446;6.800;2023-08-17T01:59:21;18.80;1.00
14614;DHT22;7393;51.446;6.800;2023-08-17T02:01:48;18.80;1.00
14614;DHT22;7393;51.446;6.800;2023-08-17T02:04:15;18.80;1.00
14614;DHT22;7393;51.446;6.800;2023-08-17T02:06:42;18.80;1.00
14614;DHT22;7393;51.446;6.800;2023-08-17T02:09:09;18.80;1.00
14614;DHT22;7393;51.446;6.800;2023-08-17T02:11:36;18.80;1.00
14614;DHT22;7393;51.446;6.800;2023-08-17T02:14:04;18.80;1.00
14614;DHT22;7393;51.446;6.800;2023-08-17T02:16:31;18.80;1.00
14614;DHT22;7393;51.446;6.800;2023-08-17T02:18:58;18.80;1.00
14614;DHT22;7393;51.446;6.800;2023-08-17T02:21:25;18.80;1.00
14614;DHT22;7393;51.446;6.800;2023-08-17T02:23:52;18.80;1.00
14614;DHT22;7393;51.446;6.800;2023-08-17T02:26:18;18.80;1.00
14614;DHT22;7393;51.446;6.800;2023-08-17T02:28:45;18.70;1.00
14614;DHT22;7393;51.446;6.800;2023-08-17T02:31:13;18.70;1.00
14614;DHT22;7393;51.446;6.800;2023-08-17T02:33:40;18.70;1.00
14614;DHT22;7393;51.446;6.800;2023-08-17T02:36:07;18.70;1.00
14614;DHT22;7393;51.446;6.800;2023-08-17T02:38:34;18.70;1.00
14614;DHT22;7393;51.446;6.800;2023-08-17T02:41:01;18.60;1.00
14614;DHT22;7393;51.446;6.800;2023-08-17T02:43:28;18.60;1.00
14614;DHT22;7393;51.446;6.800;2023-08-17T02:45:55;18.60;1.00
14614;DHT22;7393;51.446;6.800;2023-08-17T02:48:23;18.50;1.00
14614;DHT22;7393;51.446;6.800;2023-08-17T02:50:50;18.50;1.00
14614;DHT22;7393;51.446;6.800;2023-08-17T02:53:16;18.50;1.00
14614;DHT22;7393;51.446;6.800;2023-08-17T02:55:43;18.50;1.00
14614;DHT22;7393;51.446;6.800;2023-08-17T02:58:10;18.50;1.00
14614;DHT22;7393;51.446;6.800;2023-08-17T03:00:37;18.40;1.00
14614;DHT22;7393;51.446;6.800;2023-08-17T03:03:04;18.40;1.00
14614;DHT22;7393;51.446;6.800;2023-08-17T03:05:33;18.40;1.00
14614;DHT22;7393;51.446;6.800;2023-08-17T03:08:00;18.40;1.00
14614;DHT22;7393;51.446;6.800;2023-08-17T03:10:27;18.30;1.00
14614;DHT22;7393;51.446;6.800;2023-08-17T03:12:53;18.30;1.00
14614;DHT22;7393;51.446;6.800;2023-08-17T03:15:20;18.30;1.00
14614;DHT22;7393;51.446;6.800;2023-08-17T03:17:47;18.30;1.00
14614;DHT22;7393;51.446;6.800;2023-08-17T03:20:14;18.30;1.00
14614;DHT22;7393;51.446;6.800;2023-08-17T03:22:42;18.30;1.00
14614;DHT22;7393;51.446;6.800;2023-08-17T03:25:09;18.30;1.00
14614;DHT22;7393;51.446;6.800;2023-08-17T03:27:36;18.30;1.00
14614;DHT22;7393;51.446;6.800;2023-08-17T03:30:04;18.30;1.00
14614;DHT22;7393;51.446;6.800;2023-08-17T03:32:31;18.30;1.00
14614;DHT22;7393;51.446;6.800;2023-08-17T03:34:57;18.30;1.00
14614;DHT22;7393;51.446;6.800;2023-08-17T03:37:24;18.30;1.00
14614;DHT22;7393;51.446;6.800;2023-08-17T03:39:52;18.30;1.00
14614;DHT22;7393;51.446;6.800;2023-08-17T03:42:19;18.30;1.00
14614;DHT22;7393;51.446;6.800;2023-08-17T03:44:46;18.30;1.00
14614;DHT22;7393;51.446;6.800;2023-08-17T03:47:13;18.30;1.00
14614;DHT22;7393;51.446;6.800;2023-08-17T03:49:40;18.30;1.00
14614;DHT22;7393;51.446;6.800;2023-08-17T03:52:07;18.30;1.00
14614;DHT22;7393;51.446;6.800;2023-08-17T03:54:33;18.20;1.00
14614;DHT22;7393;51.446;6.800;2023-08-17T03:57:01;18.20;1.00
14614;DHT22;7393;51.446;6.800;2023-08-17T03:59:28;18.20;1.00
14614;DHT22;7393;51.446;6.800;2023-08-17T04:01:55;18.20;1.00
14614;DHT22;7393;51.446;6.800;2023-08-17T04:04:22;18.20;1.00
14614;DHT22;7393;51.446;6.800;2023-08-17T04:06:49;18.30;1.00
14614;DHT22;7393;51.446;6.800;2023-08-17T04:09:15;18.30;1.00
14614;DHT22;7393;51.446;6.800;2023-08-17T04:11:42;18.30;1.00
14614;DHT22;7393;51.446;6.800;2023-08-17T04:14:10;18.30;1.00
14614;DHT22;7393;51.446;6.800;2023-08-17T04:16:37;18.30;1.00
14614;DHT22;7393;51.446;6.800;2023-08-17T04:19:04;18.30;1.00
14614;DHT22;7393;51.446;6.800;2023-08-17T04:21:31;18.30;1.00
14614;DHT22;7393;51.446;6.800;2023-08-17T04:23:58;18.30;1.00
14614;DHT22;7393;51.446;6.800;2023-08-17T04:26:25;18.20;1.00
14614;DHT22;7393;51.446;6.800;2023-08-17T04:28:52;18.20;1.00
14614;DHT22;7393;51.446;6.800;2023-08-17T04:31:20;18.10;1.00
14614;DHT22;7393;51.446;6.800;2023-08-17T04:33:47;18.10;1.00
14614;DHT22;7393;51.446;6.800;2023-08-17T04:36:13;18.10;1.00
14614;DHT22;7393;51.446;6.800;2023-08-17T04:38:40;18.10;1.00
14614;DHT22;7393;51.446;6.800;2023-08-17T04:41:07;18.10;1.00
14614;DHT22;7393;51.446;6.800;2023-08-17T04:43:34;18.10;1.00
14614;DHT22;7393;51.446;6.800;2023-08-17T04:46:01;18.00;1.00
14614;DHT22;7393;51.446;6.800;2023-08-17T04:48:29;18.00;1.00
14614;DHT22;7393;51.446;6.800;2023-08-17T04:50:55;18.00;1.00
14614;DHT22;7393;51.446;6.800;2023-08-17T04:53:22;17.90;1.00
14614;DHT22;7393;51.446;6.800;2023-08-17T04:55:49;17.90;1.00
14614;DHT22;7393;51.446;6.800;2023-08-17T04:58:16;17.90;1.00
14614;DHT22;7393;51.446;6.800;2023-08-17T05:00:43;17.90;1.00
14614;DHT22;7393;51.446;6.800;2023-08-17T05:03:09;18.00;1.00
14614;DHT22;7393;51.446;6.800;2023-08-17T05:05:38;18.00;1.00
14614;DHT22;7393;51.446;6.800;2023-08-17T05:08:05;18.00;1.00
14614;DHT22;7393;51.446;6.800;2023-08-17T05:10:31;18.00;1.00
14614;DHT22;7393;51.446;6.800;2023-08-17T05:12:58;18.00;1.00
14614;DHT22;7393;51.446;6.800;2023-08-17T05:15:25;18.10;1.00
14614;DHT22;7393;51.446;6.800;2023-08-17T05:17:52;18.10;1.00
14614;DHT22;7393;51.446;6.800;2023-08-17T05:20:19;18.20;1.00
14614;DHT22;7393;51.446;6.800;2023-08-17T05:22:47;18.20;1.00
14614;DHT22;7393;51.446;6.800;2023-08-17T05:25:14;18.20;1.00
14614;DHT22;7393;51.446;6.800;2023-08-17T05:27:41;18.10;1.00
14614;DHT22;7393;51.446;6.800;2023-08-17T05:30:08;18.10;1.00
14614;DHT22;7393;51.446;6.800;2023-08-17T05:32:35;18.10;1.00
14614;DHT22;7393;51.446;6.800;2023-08-17T05:35:03;18.10;1.00
14614;DHT22;7393;51.446;6.800;2023-08-17T05:37:29;18.20;1.00
14614;DHT22;7393;51.446;6.800;2023-08-17T05:39:58;18.20;1.00
14614;DHT22;7393;51.446;6.800;2023-08-17T05:42:25;18.20;1.00
14614;DHT22;7393;51.446;6.800;2023-08-17T05:44:51;18.30;1.00
14614;DHT22;7393;51.446;6.800;2023-08-17T05:47:18;18.30;1.00
14614;DHT22;7393;51.446;6.800;2023-08-17T05:49:45;18.20;1.00
14614;DHT22;7393;51.446;6.800;2023-08-17T05:52:12;18.20;1.00
14614;DHT22;7393;51.446;6.800;2023-08-17T05:54:39;18.30;1.00
14614;DHT22;7393;51.446;6.800;2023-08-17T05:57:07;18.30;1.00
14614;DHT22;7393;51.446;6.800;2023-08-17T05:59:35;18.40;1.00
14614;DHT22;7393;51.446;6.800;2023-08-17T06:02:02;18.30;1.00
14614;DHT22;7393;51.446;6.800;2023-08-17T06:04:29;18.40;1.00
14614;DHT22;7393;51.446;6.800;2023-08-17T06:06:56;18.30;1.00
14614;DHT22;7393;51.446;6.800;2023-08-17T06:09:22;18.30;1.00
14614;DHT22;7393;51.446;6.800;2023-08-17T06:11:49;18.30;1.00
14614;DHT22;7393;51.446;6.800;2023-08-17T06:14:18;18.30;1.00
14614;DHT22;7393;51.446;6.800;2023-08-17T06:16:44;18.30;1.00
14614;DHT22;7393;51.446;6.800;2023-08-17T06:19:11;18.30;1.00
14614;DHT22;7393;51.446;6.800;2023-08-17T06:21:38;18.40;1.00
14614;DHT22;7393;51.446;6.800;2023-08-17T06:24:05;18.40;1.00
14614;DHT22;7393;51.446;6.800;2023-08-17T06:26:32;18.40;1.00
14614;DHT22;7393;51.446;6.800;2023-08-17T06:28:59;18.50;1.00
14614;DHT22;7393;51.446;6.800;2023-08-17T06:31:27;18.50;1.00
14614;DHT22;7393;51.446;6.800;2023-08-17T06:33:54;18.50;1.00
14614;DHT22;7393;51.446;6.800;2023-08-17T06:36:21;18.50;1.00
14614;DHT22;7393;51.446;6.800;2023-08-17T06:38:48;18.50;1.00
14614;DHT22;7393;51.446;6.800;2023-08-17T06:41:16;18.60;1.00
14614;DHT22;7393;51.446;6.800;2023-08-17T06:43:42;18.60;1.00
14614;DHT22;7393;51.446;6.800;2023-08-17T06:46:09;18.60;1.00
14614;DHT22;7393;51.446;6.800;2023-08-17T06:48:37;18.60;1.00
14614;DHT22;7393;51.446;6.800;2023-08-17T06:51:04;18.60;1.00
14614;DHT22;7393;51.446;6.800;2023-08-17T06:53:32;18.60;1.00
14614;DHT22;7393;51.446;6.800;2023-08-17T06:55:58;18.60;1.00
14614;DHT22;7393;51.446;6.800;2023-08-17T06:58:25;18.60;1.00
14614;DHT22;7393;51.446;6.800;2023-08-17T07:00:52;18.70;1.00
14614;DHT22;7393;51.446;6.800;2023-08-17T07:03:19;18.60;1.00
14614;DHT22;7393;51.446;6.800;2023-08-17T07:05:47;18.60;1.00
14614;DHT22;7393;51.446;6.800;2023-08-17T07:08:14;18.60;1.00
14614;DHT22;7393;51.446;6.800;2023-08-17T07:10:42;18.60;1.00
14614;DHT22;7393;51.446;6.800;2023-08-17T07:13:09;18.60;1.00
14614;DHT22;7393;51.446;6.800;2023-08-17T07:15:36;18.60;1.00
14614;DHT22;7393;51.446;6.800;2023-08-17T07:18:03;18.70;1.00
14614;DHT22;7393;51.446;6.800;2023-08-17T07:20:30;18.60;1.00
14614;DHT22;7393;51.446;6.800;2023-08-17T07:22:58;18.70;1.00
14614;DHT22;7393;51.446;6.800;2023-08-17T07:25:25;18.70;1.00
14614;DHT22;7393;51.446;6.800;2023-08-17T07:27:52;18.70;1.00
14614;DHT22;7393;51.446;6.800;2023-08-17T07:30:18;18.70;1.00
14614;DHT22;7393;51.446;6.800;2023-08-17T07:32:45;18.80;1.00
14614;DHT22;7393;51.446;6.800;2023-08-17T07:35:12;18.80;1.00
14614;DHT22;7393;51.446;6.800;2023-08-17T07:37:39;18.80;1.00
14614;DHT22;7393;51.446;6.800;2023-08-17T07:40:08;18.80;1.00
14614;DHT22;7393;51.446;6.800;2023-08-17T07:42:35;18.80;1.00
14614;DHT22;7393;51.446;6.800;2023-08-17T07:45:03;18.80;1.00
14614;DHT22;7393;51.446;6.800;2023-08-17T07:47:31;18.90;1.00
14614;DHT22;7393;51.446;6.800;2023-08-17T07:49:58;18.90;1.00
14614;DHT22;7393;51.446;6.800;2023-08-17T07:52:25;19.00;1.00
14614;DHT22;7393;51.446;6.800;2023-08-17T07:54:51;19.00;1.00
14614;DHT22;7393;51.446;6.800;2023-08-17T07:57:20;19.00;1.00
14614;DHT22;7393;51.446;6.800;2023-08-17T07:59:47;19.00;1.00
14614;DHT22;7393;51.446;6.800;2023-08-17T08:02:13;19.10;1.00
14614;DHT22;7393;51.446;6.800;2023-08-17T08:04:40;19.10;1.00
14614;DHT22;7393;51.446;6.800;2023-08-17T08:07:07;19.10;1.00
14614;DHT22;7393;51.446;6.800;2023-08-17T08:09:34;19.10;1.00
14614;DHT22;7393;51.446;6.800;2023-08-17T08:12:01;19.10;1.00
14614;DHT22;7393;51.446;6.800;2023-08-17T08:14:29;19.20;1.00
14614;DHT22;7393;51.446;6.800;2023-08-17T08:16:56;19.20;1.00
14614;DHT22;7393;51.446;6.800;2023-08-17T08:19:23;19.20;1.00
14614;DHT22;7393;51.446;6.800;2023-08-17T08:21:50;19.20;1.00
14614;DHT22;7393;51.446;6.800;2023-08-17T08:24:17;19.20;1.00
14614;DHT22;7393;51.446;6.800;2023-08-17T08:26:43;19.20;1.00
14614;DHT22;7393;51.446;6.800;2023-08-17T08:29:10;19.20;1.00
14614;DHT22;7393;51.446;6.800;2023-08-17T08:31:38;19.20;1.00
14614;DHT22;7393;51.446;6.800;2023-08-17T08:34:05;19.20;1.00
14614;DHT22;7393;51.446;6.800;2023-08-17T08:36:32;19.20;1.00
14614;DHT22;7393;51.446;6.800;2023-08-17T08:38:59;19.30;1.00
14614;DHT22;7393;51.446;6.800;2023-08-17T08:41:26;19.30;1.00
14614;DHT22;7393;51.446;6.800;2023-08-17T08:43:53;19.30;1.00
14614;DHT22;7393;51.446;6.800;2023-08-17T08:46:21;19.30;1.00
14614;DHT22;7393;51.446;6.800;2023-08-17T08:48:52;19.30;1.00
14614;DHT22;7393;51.446;6.800;2023-08-17T08:51:25;19.30;1.00
14614;DHT22;7393;51.446;6.800;2023-08-17T08:54:01;19.30;1.00
14614;DHT22;7393;51.446;6.800;2023-08-17T08:56:31;19.30;1.00
14614;DHT22;7393;51.446;6.800;2023-08-17T08:59:01;19.30;1.00
14614;DHT22;7393;51.446;6.800;2023-08-17T09:01:30;19.30;1.00
14614;DHT22;7393;51.446;6.800;2023-08-17T09:04:00;19.30;1.00
14614;DHT22;7393;51.446;6.800;2023-08-17T09:06:29;19.40;1.00
14614;DHT22;7393;51.446;6.800;2023-08-17T09:08:57;19.30;1.00
14614;DHT22;7393;51.446;6.800;2023-08-17T09:11:24;19.30;1.00
14614;DHT22;7393;51.446;6.800;2023-08-17T09:13:53;19.30;1.00
14614;DHT22;7393;51.446;6.800;2023-08-17T09:16:20;19.30;1.00
14614;DHT22;7393;51.446;6.800;2023-08-17T09:18:47;19.30;1.00
14614;DHT22;7393;51.446;6.800;2023-08-17T09:21:21;19.30;1.00
14614;DHT22;7393;51.446;6.800;2023-08-17T09:23:52;19.40;1.00
14614;DHT22;7393;51.446;6.800;2023-08-17T09:26:19;19.30;1.00
14614;DHT22;7393;51.446;6.800;2023-08-17T09:28:47;19.30;1.00
14614;DHT22;7393;51.446;6.800;2023-08-17T09:31:14;19.40;1.00
14614;DHT22;7393;51.446;6.800;2023-08-17T09:33:41;19.30;1.00
14614;DHT22;7393;51.446;6.800;2023-08-17T09:36:10;19.40;1.00
14614;DHT22;7393;51.446;6.800;2023-08-17T09:38:39;19.40;1.00
14614;DHT22;7393;51.446;6.800;2023-08-17T09:41:06;19.40;1.00
14614;DHT22;7393;51.446;6.800;2023-08-17T09:43:33;19.40;1.00
14614;DHT22;7393;51.446;6.800;2023-08-17T09:46:00;19.50;1.00
14614;DHT22;7393;51.446;6.800;2023-08-17T09:48:28;19.50;1.00
14614;DHT22;7393;51.446;6.800;2023-08-17T09:50:57;19.50;1.00
14614;DHT22;7393;51.446;6.800;2023-08-17T09:53:24;19.50;1.00
14614;DHT22;7393;51.446;6.800;2023-08-17T09:55:53;19.50;1.00
14614;DHT22;7393;51.446;6.800;2023-08-17T09:58:21;19.60;1.00
14614;DHT22;7393;51.446;6.800;2023-08-17T10:00:50;19.60;1.00
14614;DHT22;7393;51.446;6.800;2023-08-17T10:03:18;19.60;1.00
14614;DHT22;7393;51.446;6.800;2023-08-17T10:05:48;19.60;1.00
14614;DHT22;7393;51.446;6.800;2023-08-17T10:08:19;19.70;1.00
14614;DHT22;7393;51.446;6.800;2023-08-17T10:10:47;19.70;1.00
14614;DHT22;7393;51.446;6.800;2023-08-17T10:13:22;19.80;1.00
14614;DHT22;7393;51.446;6.800;2023-08-17T10:15:57;19.80;1.00
14614;DHT22;7393;51.446;6.800;2023-08-17T10:18:30;19.90;1.00
14614;DHT22;7393;51.446;6.800;2023-08-17T10:21:01;19.90;1.00
14614;DHT22;7393;51.446;6.800;2023-08-17T10:23:31;20.00;1.00
14614;DHT22;7393;51.446;6.800;2023-08-17T10:25:57;20.00;1.00
14614;DHT22;7393;51.446;6.800;2023-08-17T10:28:29;20.10;1.00
14614;DHT22;7393;51.446;6.800;2023-08-17T10:30:57;20.00;1.00
14614;DHT22;7393;51.446;6.800;2023-08-17T10:33:25;20.00;1.00
14614;DHT22;7393;51.446;6.800;2023-08-17T10:35:52;20.00;1.00
14614;DHT22;7393;51.446;6.800;2023-08-17T10:38:20;20.00;1.00
14614;DHT22;7393;51.446;6.800;2023-08-17T10:41:07;20.10;1.00
14614;DHT22;7393;51.446;6.800;2023-08-17T10:43:40;20.10;1.00
14614;DHT22;7393;51.446;6.800;2023-08-17T10:46:19;20.20;1.00
14614;DHT22;7393;51.446;6.800;2023-08-17T10:48:46;20.30;1.00
14614;DHT22;7393;51.446;6.800;2023-08-17T10:51:13;20.30;1.00
14614;DHT22;7393;51.446;6.800;2023-08-17T10:53:43;20.30;1.00
14614;DHT22;7393;51.446;6.800;2023-08-17T10:56:14;20.30;1.00
14614;DHT22;7393;51.446;6.800;2023-08-17T10:58:44;20.40;1.00
14614;DHT22;7393;51.446;6.800;2023-08-17T11:01:11;20.40;1.00
14614;DHT22;7393;51.446;6.800;2023-08-17T11:03:41;20.50;1.00
14614;DHT22;7393;51.446;6.800;2023-08-17T11:06:16;20.60;99.90
14614;DHT22;7393;51.446;6.800;2023-08-17T11:08:54;20.70;1.00
14614;DHT22;7393;51.446;6.800;2023-08-17T11:11:22;20.70;1.00
14614;DHT22;7393;51.446;6.800;2023-08-17T11:13:52;20.70;1.00
14614;DHT22;7393;51.446;6.800;2023-08-17T11:16:19;20.80;1.00
14614;DHT22;7393;51.446;6.800;2023-08-17T11:18:47;20.90;1.00
14614;DHT22;7393;51.446;6.800;2023-08-17T11:21:15;20.90;99.90
14614;DHT22;7393;51.446;6.800;2023-08-17T11:23:43;20.90;99.90
14614;DHT22;7393;51.446;6.800;2023-08-17T11:26:10;20.90;99.90
14614;DHT22;7393;51.446;6.800;2023-08-17T11:28:37;21.00;99.90
14614;DHT22;7393;51.446;6.800;2023-08-17T11:31:09;21.10;99.90
14614;DHT22;7393;51.446;6.800;2023-08-17T11:33:38;21.10;99.90
14614;DHT22;7393;51.446;6.800;2023-08-17T11:36:07;21.10;99.90
14614;DHT22;7393;51.446;6.800;2023-08-17T11:38:35;21.00;99.90
14614;DHT22;7393;51.446;6.800;2023-08-17T11:41:03;21.00;1.00
14614;DHT22;7393;51.446;6.800;2023-08-17T11:43:32;21.10;1.00
14614;DHT22;7393;51.446;6.800;2023-08-17T11:46:00;21.10;99.90
14614;DHT22;7393;51.446;6.800;2023-08-17T11:48:28;21.20;99.90
14614;DHT22;7393;51.446;6.800;2023-08-17T11:50:55;21.20;99.90
14614;DHT22;7393;51.446;6.800;2023-08-17T11:53:23;21.20;99.90
14614;DHT22;7393;51.446;6.800;2023-08-17T11:55:50;21.20;99.90
14614;DHT22;7393;51.446;6.800;2023-08-17T11:58:17;21.30;99.90
14614;DHT22;7393;51.446;6.800;2023-08-17T12:00:44;21.30;99.30
14614;DHT22;7393;51.446;6.800;2023-08-17T12:03:13;21.30;99.90
14614;DHT22;7393;51.446;6.800;2023-08-17T12:05:43;21.20;99.90
14614;DHT22;7393;51.446;6.800;2023-08-17T12:08:13;21.30;99.90
14614;DHT22;7393;51.446;6.800;2023-08-17T12:10:40;21.30;80.30
14614;DHT22;7393;51.446;6.800;2023-08-17T12:13:11;21.20;99.90
14614;DHT22;7393;51.446;6.800;2023-08-17T12:15:38;21.20;99.90
14614;DHT22;7393;51.446;6.800;2023-08-17T12:18:05;21.20;99.90
14614;DHT22;7393;51.446;6.800;2023-08-17T12:20:33;21.10;99.90
14614;DHT22;7393;51.446;6.800;2023-08-17T12:23:04;21.20;1.00
14614;DHT22;7393;51.446;6.800;2023-08-17T12:25:30;21.20;1.00
14614;DHT22;7393;51.446;6.800;2023-08-17T12:27:58;21.20;99.90
14614;DHT22;7393;51.446;6.800;2023-08-17T12:30:27;21.20;99.90
14614;DHT22;7393;51.446;6.800;2023-08-17T12:32:55;21.00;99.90
14614;DHT22;7393;51.446;6.800;2023-08-17T12:35:22;21.10;99.90
14614;DHT22;7393;51.446;6.800;2023-08-17T12:37:50;21.10;99.90
14614;DHT22;7393;51.446;6.800;2023-08-17T12:40:19;21.10;1.00
14614;DHT22;7393;51.446;6.800;2023-08-17T12:42:46;21.10;1.00
14614;DHT22;7393;51.446;6.800;2023-08-17T12:45:13;21.10;99.90
14614;DHT22;7393;51.446;6.800;2023-08-17T12:47:40;21.10;99.90
14614;DHT22;7393;51.446;6.800;2023-08-17T12:50:08;21.10;1.00
14614;DHT22;7393;51.446;6.800;2023-08-17T12:52:35;21.10;1.00
14614;DHT22;7393;51.446;6.800;2023-08-17T12:55:02;21.10;1.00
14614;DHT22;7393;51.446;6.800;2023-08-17T12:57:30;21.20;99.90
14614;DHT22;7393;51.446;6.800;2023-08-17T12:59:57;21.20;99.90
14614;DHT22;7393;51.446;6.800;2023-08-17T13:02:24;21.20;99.90
14614;DHT22;7393;51.446;6.800;2023-08-17T13:04:51;21.20;99.90
14614;DHT22;7393;51.446;6.800;2023-08-17T13:07:18;21.10;1.00
14614;DHT22;7393;51.446;6.800;2023-08-17T13:09:44;21.20;1.00
14614;DHT22;7393;51.446;6.800;2023-08-17T13:12:12;21.30;99.90
14614;DHT22;7393;51.446;6.800;2023-08-17T13:14:40;21.20;99.90
14614;DHT22;7393;51.446;6.800;2023-08-17T13:17:07;21.20;99.90
14614;DHT22;7393;51.446;6.800;2023-08-17T13:19:34;21.20;99.90
14614;DHT22;7393;51.446;6.800;2023-08-17T13:22:00;21.20;99.90
14614;DHT22;7393;51.446;6.800;2023-08-17T13:24:29;21.20;99.90
14614;DHT22;7393;51.446;6.800;2023-08-17T13:26:56;21.20;99.90
14614;DHT22;7393;51.446;6.800;2023-08-17T13:29:23;21.20;99.90
14614;DHT22;7393;51.446;6.800;2023-08-17T13:31:51;21.20;99.90
14614;DHT22;7393;51.446;6.800;2023-08-17T13:34:18;21.30;99.90
14614;DHT22;7393;51.446;6.800;2023-08-17T13:36:45;21.30;99.90
14614;DHT22;7393;51.446;6.800;2023-08-17T13:39:11;21.30;99.90
14614;DHT22;7393;51.446;6.800;2023-08-17T13:41:39;21.30;99.90
14614;DHT22;7393;51.446;6.800;2023-08-17T13:44:06;21.30;99.90
14614;DHT22;7393;51.446;6.800;2023-08-17T13:46:33;21.30;99.90
14614;DHT22;7393;51.446;6.800;2023-08-17T13:49:01;21.40;99.90
14614;DHT22;7393;51.446;6.800;2023-08-17T13:51:28;21.40;99.90
14614;DHT22;7393;51.446;6.800;2023-08-17T13:53:55;21.40;99.90
14614;DHT22;7393;51.446;6.800;2023-08-17T13:56:22;21.40;99.90
14614;DHT22;7393;51.446;6.800;2023-08-17T13:58:48;21.40;99.90
14614;DHT22;7393;51.446;6.800;2023-08-17T14:01:15;21.50;99.90
14614;DHT22;7393;51.446;6.800;2023-08-17T14:03:42;21.50;99.90
14614;DHT22;7393;51.446;6.800;2023-08-17T14:06:10;21.50;99.90
14614;DHT22;7393;51.446;6.800;2023-08-17T14:08:37;21.50;99.90
14614;DHT22;7393;51.446;6.800;2023-08-17T14:11:04;21.50;99.90
14614;DHT22;7393;51.446;6.800;2023-08-17T14:13:32;21.50;97.30
14614;DHT22;7393;51.446;6.800;2023-08-17T14:15:59;21.60;99.90
14614;DHT22;7393;51.446;6.800;2023-08-17T14:18:26;21.60;1.00
14614;DHT22;7393;51.446;6.800;2023-08-17T14:20:53;21.70;1.00
14614;DHT22;7393;51.446;6.800;2023-08-17T14:23:21;21.70;1.00
14614;DHT22;7393;51.446;6.800;2023-08-17T14:25:48;21.70;1.00
14614;DHT22;7393;51.446;6.800;2023-08-17T14:28:17;21.70;1.00
14614;DHT22;7393;51.446;6.800;2023-08-17T14:30:44;21.60;1.00
14614;DHT22;7393;51.446;6.800;2023-08-17T14:33:10;21.60;1.00
14614;DHT22;7393;51.446;6.800;2023-08-17T14:35:38;21.70;1.00
14614;DHT22;7393;51.446;6.800;2023-08-17T14:38:05;21.70;1.00
14614;DHT22;7393;51.446;6.800;2023-08-17T14:40:35;21.70;1.00
14614;DHT22;7393;51.446;6.800;2023-08-17T14:43:03;21.70;1.00
14614;DHT22;7393;51.446;6.800;2023-08-17T14:45:30;21.60;1.00
14614;DHT22;7393;51.446;6.800;2023-08-17T14:47:57;21.70;1.00
14614;DHT22;7393;51.446;6.800;2023-08-17T14:50:24;21.70;1.00
14614;DHT22;7393;51.446;6.800;2023-08-17T14:52:51;21.70;1.00
14614;DHT22;7393;51.446;6.800;2023-08-17T14:55:18;21.70;1.00
14614;DHT22;7393;51.446;6.800;2023-08-17T14:57:46;21.80;1.00
14614;DHT22;7393;51.446;6.800;2023-08-17T15:00:13;21.80;99.90
14614;DHT22;7393;51.446;6.800;2023-08-17T15:02:40;21.80;99.90
14614;DHT22;7393;51.446;6.800;2023-08-17T15:05:07;21.80;1.00
14614;DHT22;7393;51.446;6.800;2023-08-17T15:07:34;21.80;1.00
14614;DHT22;7393;51.446;6.800;2023-08-17T15:10:01;21.80;99.90
14614;DHT22;7393;51.446;6.800;2023-08-17T15:12:28;21.90;99.90
14614;DHT22;7393;51.446;6.800;2023-08-17T15:14:56;21.80;1.00
14614;DHT22;7393;51.446;6.800;2023-08-17T15:17:22;21.80;1.00
14614;DHT22;7393;51.446;6.800;2023-08-17T15:19:49;21.80;1.00
14614;DHT22;7393;51.446;6.800;2023-08-17T15:22:16;21.80;1.00
14614;DHT22;7393;51.446;6.800;2023-08-17T15:24:44;21.80;1.00
14614;DHT22;7393;51.446;6.800;2023-08-17T15:27:11;21.80;1.00
14614;DHT22;7393;51.446;6.800;2023-08-17T15:29:38;21.80;1.00
14614;DHT22;7393;51.446;6.800;2023-08-17T15:32:07;21.80;1.00
14614;DHT22;7393;51.446;6.800;2023-08-17T15:34:34;21.80;1.00
14614;DHT22;7393;51.446;6.800;2023-08-17T15:37:01;21.90;99.90
14614;DHT22;7393;51.446;6.800;2023-08-17T15:39:28;21.90;1.00
14614;DHT22;7393;51.446;6.800;2023-08-17T15:41:55;21.90;1.00
14614;DHT22;7393;51.446;6.800;2023-08-17T15:44:22;21.90;1.00
14614;DHT22;7393;51.446;6.800;2023-08-17T15:46:49;21.90;1.00
14614;DHT22;7393;51.446;6.800;2023-08-17T15:49:18;21.90;99.90
14614;DHT22;7393;51.446;6.800;2023-08-17T15:51:45;21.90;1.00
14614;DHT22;7393;51.446;6.800;2023-08-17T15:54:12;21.90;1.00
14614;DHT22;7393;51.446;6.800;2023-08-17T15:56:39;21.90;1.00
14614;DHT22;7393;51.446;6.800;2023-08-17T15:59:05;21.90;1.00
14614;DHT22;7393;51.446;6.800;2023-08-17T16:01:32;21.90;1.00